sensor_id;sensor_type;location;lat;lon;timestamp;P1;durP1;ratioP1;P2;durP2;ratioP2
18407;SDS011;9330;52.210;21.174;2023-09-19T00:01:33;10.27;;;9.10;;
18407;SDS011;9330;52.210;21.174;2023-09-19T00:04:01;11.18;;;9.55;;
18407;SDS011;9330;52.210;21.174;2023-09-19T00:06:28;12.85;;;9.93;;
18407;SDS011;9330;52.210;21.174;2023-09-19T00:08:56;11.30;;;10.07;;
18407;SDS011;9330;52.210;21.174;2023-09-19T00:11:25;10.95;;;9.85;;
18407;SDS011;9330;52.210;21.174;2023-09-19T00:13:52;10.07;;;9.07;;
18407;SDS011;9330;52.210;21.174;2023-09-19T00:16:19;11.05;;;9.88;;
18407;SDS011;9330;52.210;21.174;2023-09-19T00:18:47;11.60;;;10.40;;
18407;SDS011;9330;52.210;21.174;2023-09-19T00:21:15;10.82;;;9.77;;
18407;SDS011;9330;52.210;21.174;2023-09-19T00:23:44;11.65;;;10.45;;
18407;SDS011;9330;52.210;21.174;2023-09-19T00:26:11;10.82;;;9.73;;
18407;SDS011;9330;52.210;21.174;2023-09-19T00:28:39;10.48;;;9.38;;
18407;SDS011;9330;52.210;21.174;2023-09-19T00:31:07;12.02;;;9.57;;
18407;SDS011;9330;52.210;21.174;2023-09-19T00:33:34;10.63;;;9.63;;
18407;SDS011;9330;52.210;21.174;2023-09-19T00:36:02;10.70;;;9.70;;
18407;SDS011;9330;52.210;21.174;2023-09-19T00:38:32;10.93;;;9.85;;
18407;SDS011;9330;52.210;21.174;2023-09-19T00:40:58;11.82;;;9.90;;
18407;SDS011;9330;52.210;21.174;2023-09-19T00:43:25;10.73;;;9.63;;
18407;SDS011;9330;52.210;21.174;2023-09-19T00:45:53;11.50;;;10.18;;
18407;SDS011;9330;52.210;21.174;2023-09-19T00:48:21;12.38;;;10.50;;
18407;SDS011;9330;52.210;21.174;2023-09-19T00:50:49;11.20;;;10.13;;
18407;SDS011;9330;52.210;21.174;2023-09-19T00:53:20;11.38;;;10.02;;
18407;SDS011;9330;52.210;21.174;2023-09-19T00:55:50;11.20;;;9.75;;
18407;SDS011;9330;52.210;21.174;2023-09-19T00:58:18;12.35;;;9.43;;
18407;SDS011;9330;52.210;21.174;2023-09-19T01:00:46;11.98;;;10.25;;
18407;SDS011;9330;52.210;21.174;2023-09-19T01:03:14;11.63;;;10.23;;
18407;SDS011;9330;52.210;21.174;2023-09-19T01:05:41;11.25;;;10.10;;
18407;SDS011;9330;52.210;21.174;2023-09-19T01:08:08;11.68;;;10.38;;
18407;SDS011;9330;52.210;21.174;2023-09-19T01:10:36;12.18;;;10.40;;
18407;SDS011;9330;52.210;21.174;2023-09-19T01:13:15;11.20;;;10.00;;
18407;SDS011;9330;52.210;21.174;2023-09-19T01:15:51;11.63;;;10.52;;
18407;SDS011;9330;52.210;21.174;2023-09-19T01:18:27;11.13;;;9.60;;
18407;SDS011;9330;52.210;21.174;2023-09-19T01:21:03;11.60;;;10.40;;
18407;SDS011;9330;52.210;21.174;2023-09-19T01:23:39;11.93;;;10.73;;
18407;SDS011;9330;52.210;21.174;2023-09-19T01:26:18;11.35;;;10.25;;
18407;SDS011;9330;52.210;21.174;2023-09-19T01:29:17;10.55;;;9.27;;
18407;SDS011;9330;52.210;21.174;2023-09-19T01:31:57;11.80;;;9.95;;
18407;SDS011;9330;52.210;21.174;2023-09-19T01:34:26;11.75;;;10.55;;
18407;SDS011;9330;52.210;21.174;2023-09-19T01:36:53;11.65;;;10.30;;
18407;SDS011;9330;52.210;21.174;2023-09-19T01:39:20;13.10;;;10.50;;
18407;SDS011;9330;52.210;21.174;2023-09-19T01:41:51;13.90;;;10.80;;
18407;SDS011;9330;52.210;21.174;2023-09-19T01:44:31;11.50;;;10.35;;
18407;SDS011;9330;52.210;21.174;2023-09-19T01:47:09;12.13;;;10.93;;
18407;SDS011;9330;52.210;21.174;2023-09-19T01:49:50;11.38;;;10.15;;
18407;SDS011;9330;52.210;21.174;2023-09-19T01:52:26;11.38;;;10.20;;
18407;SDS011;9330;52.210;21.174;2023-09-19T01:54:56;12.85;;;10.52;;
18407;SDS011;9330;52.210;21.174;2023-09-19T01:57:30;13.05;;;10.68;;
18407;SDS011;9330;52.210;21.174;2023-09-19T02:00:03;12.40;;;11.07;;
18407;SDS011;9330;52.210;21.174;2023-09-19T02:02:36;10.30;;;9.40;;
18407;SDS011;9330;52.210;21.174;2023-09-19T02:05:04;11.98;;;10.63;;
18407;SDS011;9330;52.210;21.174;2023-09-19T02:07:31;11.23;;;10.13;;
18407;SDS011;9330;52.210;21.174;2023-09-19T02:09:58;11.55;;;10.45;;
18407;SDS011;9330;52.210;21.174;2023-09-19T02:12:25;11.35;;;10.23;;
18407;SDS011;9330;52.210;21.174;2023-09-19T02:14:52;11.07;;;10.07;;
18407;SDS011;9330;52.210;21.174;2023-09-19T02:17:19;11.55;;;10.45;;
18407;SDS011;9330;52.210;21.174;2023-09-19T02:19:47;11.38;;;10.23;;
18407;SDS011;9330;52.210;21.174;2023-09-19T02:22:14;10.88;;;9.88;;
18407;SDS011;9330;52.210;21.174;2023-09-19T02:24:41;12.48;;;10.40;;
18407;SDS011;9330;52.210;21.174;2023-09-19T02:27:08;11.68;;;10.50;;
18407;SDS011;9330;52.210;21.174;2023-09-19T02:29:37;11.50;;;10.02;;
18407;SDS011;9330;52.210;21.174;2023-09-19T02:32:04;12.30;;;10.93;;
18407;SDS011;9330;52.210;21.174;2023-09-19T02:34:31;13.82;;;10.60;;
18407;SDS011;9330;52.210;21.174;2023-09-19T02:37:02;10.90;;;9.80;;
18407;SDS011;9330;52.210;21.174;2023-09-19T02:39:30;13.63;;;11.13;;
18407;SDS011;9330;52.210;21.174;2023-09-19T02:41:57;18.27;;;15.90;;
18407;SDS011;9330;52.210;21.174;2023-09-19T02:44:23;21.13;;;18.27;;
18407;SDS011;9330;52.210;21.174;2023-09-19T02:46:50;16.38;;;14.88;;
18407;SDS011;9330;52.210;21.174;2023-09-19T02:49:17;16.95;;;15.15;;
18407;SDS011;9330;52.210;21.174;2023-09-19T02:51:44;16.83;;;13.60;;
18407;SDS011;9330;52.210;21.174;2023-09-19T02:54:14;13.52;;;12.02;;
18407;SDS011;9330;52.210;21.174;2023-09-19T02:56:41;13.30;;;11.43;;
18407;SDS011;9330;52.210;21.174;2023-09-19T02:59:07;12.93;;;10.52;;
18407;SDS011;9330;52.210;21.174;2023-09-19T03:01:35;12.27;;;11.07;;
18407;SDS011;9330;52.210;21.174;2023-09-19T03:04:02;12.27;;;11.07;;
18407;SDS011;9330;52.210;21.174;2023-09-19T03:06:33;12.10;;;10.82;;
18407;SDS011;9330;52.210;21.174;2023-09-19T03:09:00;12.27;;;11.02;;
18407;SDS011;9330;52.210;21.174;2023-09-19T03:11:32;11.68;;;10.50;;
18407;SDS011;9330;52.210;21.174;2023-09-19T03:13:59;11.93;;;10.70;;
18407;SDS011;9330;52.210;21.174;2023-09-19T03:16:26;11.32;;;10.00;;
18407;SDS011;9330;52.210;21.174;2023-09-19T03:18:52;11.50;;;10.40;;
18407;SDS011;9330;52.210;21.174;2023-09-19T03:21:19;10.77;;;9.77;;
18407;SDS011;9330;52.210;21.174;2023-09-19T03:23:46;11.65;;;10.45;;
18407;SDS011;9330;52.210;21.174;2023-09-19T03:26:13;12.30;;;11.00;;
18407;SDS011;9330;52.210;21.174;2023-09-19T03:28:42;11.68;;;10.40;;
18407;SDS011;9330;52.210;21.174;2023-09-19T03:31:11;11.75;;;10.40;;
18407;SDS011;9330;52.210;21.174;2023-09-19T03:33:39;13.15;;;10.60;;
18407;SDS011;9330;52.210;21.174;2023-09-19T03:36:05;11.13;;;10.05;;
18407;SDS011;9330;52.210;21.174;2023-09-19T03:38:32;12.75;;;10.52;;
18407;SDS011;9330;52.210;21.174;2023-09-19T03:41:00;10.85;;;9.75;;
18407;SDS011;9330;52.210;21.174;2023-09-19T03:43:27;12.80;;;11.48;;
18407;SDS011;9330;52.210;21.174;2023-09-19T03:45:55;11.38;;;10.27;;
18407;SDS011;9330;52.210;21.174;2023-09-19T03:48:22;11.10;;;10.00;;
18407;SDS011;9330;52.210;21.174;2023-09-19T03:50:49;11.80;;;10.40;;
18407;SDS011;9330;52.210;21.174;2023-09-19T03:53:16;11.43;;;10.27;;
18407;SDS011;9330;52.210;21.174;2023-09-19T03:55:44;14.73;;;11.15;;
18407;SDS011;9330;52.210;21.174;2023-09-19T03:58:11;11.95;;;10.57;;
18407;SDS011;9330;52.210;21.174;2023-09-19T04:00:38;11.57;;;10.40;;
18407;SDS011;9330;52.210;21.174;2023-09-19T04:03:06;11.85;;;10.27;;
18407;SDS011;9330;52.210;21.174;2023-09-19T04:05:33;11.95;;;10.75;;
18407;SDS011;9330;52.210;21.174;2023-09-19T04:08:00;11.93;;;10.18;;
18407;SDS011;9330;52.210;21.174;2023-09-19T04:10:27;11.32;;;10.13;;
18407;SDS011;9330;52.210;21.174;2023-09-19T04:12:55;12.02;;;10.70;;
18407;SDS011;9330;52.210;21.174;2023-09-19T04:15:22;12.55;;;10.52;;
18407;SDS011;9330;52.210;21.174;2023-09-19T04:17:49;14.35;;;11.80;;
18407;SDS011;9330;52.210;21.174;2023-09-19T04:20:18;12.55;;;10.80;;
18407;SDS011;9330;52.210;21.174;2023-09-19T04:22:45;12.75;;;11.48;;
18407;SDS011;9330;52.210;21.174;2023-09-19T04:25:12;11.38;;;10.20;;
18407;SDS011;9330;52.210;21.174;2023-09-19T04:27:39;11.88;;;10.70;;
18407;SDS011;9330;52.210;21.174;2023-09-19T04:30:07;12.57;;;10.35;;
18407;SDS011;9330;52.210;21.174;2023-09-19T04:32:37;12.48;;;11.20;;
18407;SDS011;9330;52.210;21.174;2023-09-19T04:35:05;12.90;;;10.95;;
18407;SDS011;9330;52.210;21.174;2023-09-19T04:37:36;11.77;;;10.55;;
18407;SDS011;9330;52.210;21.174;2023-09-19T04:40:05;12.68;;;10.05;;
18407;SDS011;9330;52.210;21.174;2023-09-19T04:42:38;12.10;;;10.90;;
18407;SDS011;9330;52.210;21.174;2023-09-19T04:45:06;10.70;;;9.70;;
18407;SDS011;9330;52.210;21.174;2023-09-19T04:47:34;10.95;;;9.85;;
18407;SDS011;9330;52.210;21.174;2023-09-19T04:50:04;11.90;;;10.60;;
18407;SDS011;9330;52.210;21.174;2023-09-19T04:52:37;11.52;;;10.30;;
18407;SDS011;9330;52.210;21.174;2023-09-19T04:55:07;11.60;;;10.50;;
18407;SDS011;9330;52.210;21.174;2023-09-19T04:57:35;12.05;;;10.85;;
18407;SDS011;9330;52.210;21.174;2023-09-19T05:00:04;11.40;;;10.30;;
18407;SDS011;9330;52.210;21.174;2023-09-19T05:02:37;11.02;;;9.77;;
18407;SDS011;9330;52.210;21.174;2023-09-19T05:05:04;13.35;;;10.30;;
18407;SDS011;9330;52.210;21.174;2023-09-19T05:07:33;12.75;;;10.20;;
18407;SDS011;9330;52.210;21.174;2023-09-19T05:10:01;11.57;;;10.38;;
18407;SDS011;9330;52.210;21.174;2023-09-19T05:12:30;12.20;;;10.38;;
18407;SDS011;9330;52.210;21.174;2023-09-19T05:14:57;13.80;;;10.32;;
18407;SDS011;9330;52.210;21.174;2023-09-19T05:17:24;12.07;;;10.77;;
18407;SDS011;9330;52.210;21.174;2023-09-19T05:19:51;11.63;;;10.52;;
18407;SDS011;9330;52.210;21.174;2023-09-19T05:22:18;11.77;;;10.57;;
18407;SDS011;9330;52.210;21.174;2023-09-19T05:24:46;11.25;;;10.05;;
18407;SDS011;9330;52.210;21.174;2023-09-19T05:27:14;12.73;;;10.02;;
18407;SDS011;9330;52.210;21.174;2023-09-19T05:29:42;10.93;;;9.82;;
18407;SDS011;9330;52.210;21.174;2023-09-19T05:32:09;10.73;;;9.52;;
18407;SDS011;9330;52.210;21.174;2023-09-19T05:34:36;14.18;;;10.10;;
18407;SDS011;9330;52.210;21.174;2023-09-19T05:37:03;11.90;;;9.70;;
18407;SDS011;9330;52.210;21.174;2023-09-19T05:39:32;11.40;;;10.20;;
18407;SDS011;9330;52.210;21.174;2023-09-19T05:41:58;12.40;;;9.80;;
18407;SDS011;9330;52.210;21.174;2023-09-19T05:44:27;12.75;;;9.70;;
18407;SDS011;9330;52.210;21.174;2023-09-19T05:46:54;11.95;;;9.82;;
18407;SDS011;9330;52.210;21.174;2023-09-19T05:49:22;11.98;;;9.95;;
18407;SDS011;9330;52.210;21.174;2023-09-19T05:51:50;11.32;;;10.00;;
18407;SDS011;9330;52.210;21.174;2023-09-19T05:54:19;11.32;;;9.82;;
18407;SDS011;9330;52.210;21.174;2023-09-19T05:56:46;16.63;;;9.70;;
18407;SDS011;9330;52.210;21.174;2023-09-19T05:59:13;11.18;;;10.07;;
18407;SDS011;9330;52.210;21.174;2023-09-19T06:01:42;10.70;;;9.60;;
18407;SDS011;9330;52.210;21.174;2023-09-19T06:04:09;12.95;;;10.25;;
18407;SDS011;9330;52.210;21.174;2023-09-19T06:06:36;12.70;;;9.90;;
18407;SDS011;9330;52.210;21.174;2023-09-19T06:09:05;12.80;;;9.77;;
18407;SDS011;9330;52.210;21.174;2023-09-19T06:11:33;11.13;;;9.98;;
18407;SDS011;9330;52.210;21.174;2023-09-19T06:14:00;11.98;;;9.98;;
18407;SDS011;9330;52.210;21.174;2023-09-19T06:16:27;10.57;;;9.52;;
18407;SDS011;9330;52.210;21.174;2023-09-19T06:18:56;11.45;;;10.30;;
18407;SDS011;9330;52.210;21.174;2023-09-19T06:21:24;11.50;;;8.65;;
18407;SDS011;9330;52.210;21.174;2023-09-19T06:23:51;11.32;;;9.77;;
18407;SDS011;9330;52.210;21.174;2023-09-19T06:26:19;14.27;;;9.00;;
18407;SDS011;9330;52.210;21.174;2023-09-19T06:28:45;12.70;;;10.05;;
18407;SDS011;9330;52.210;21.174;2023-09-19T06:31:12;12.85;;;9.80;;
18407;SDS011;9330;52.210;21.174;2023-09-19T06:33:39;11.90;;;9.10;;
18407;SDS011;9330;52.210;21.174;2023-09-19T06:36:07;10.20;;;9.20;;
18407;SDS011;9330;52.210;21.174;2023-09-19T06:38:34;10.25;;;9.25;;
18407;SDS011;9330;52.210;21.174;2023-09-19T06:41:02;10.32;;;9.13;;
18407;SDS011;9330;52.210;21.174;2023-09-19T06:43:32;10.23;;;9.15;;
18407;SDS011;9330;52.210;21.174;2023-09-19T06:45:59;13.32;;;9.25;;
18407;SDS011;9330;52.210;21.174;2023-09-19T06:48:26;15.55;;;9.15;;
18407;SDS011;9330;52.210;21.174;2023-09-19T06:50:54;12.20;;;9.68;;
18407;SDS011;9330;52.210;21.174;2023-09-19T06:53:24;10.13;;;9.13;;
18407;SDS011;9330;52.210;21.174;2023-09-19T06:55:51;12.68;;;9.40;;
18407;SDS011;9330;52.210;21.174;2023-09-19T06:58:19;9.88;;;8.45;;
18407;SDS011;9330;52.210;21.174;2023-09-19T07:00:46;12.45;;;9.32;;
18407;SDS011;9330;52.210;21.174;2023-09-19T07:03:15;11.05;;;8.93;;
18407;SDS011;9330;52.210;21.174;2023-09-19T07:05:46;9.98;;;8.95;;
18407;SDS011;9330;52.210;21.174;2023-09-19T07:08:14;10.57;;;9.32;;
18407;SDS011;9330;52.210;21.174;2023-09-19T07:10:42;11.38;;;8.52;;
18407;SDS011;9330;52.210;21.174;2023-09-19T07:13:13;10.13;;;8.95;;
18407;SDS011;9330;52.210;21.174;2023-09-19T07:15:42;9.52;;;8.55;;
18407;SDS011;9330;52.210;21.174;2023-09-19T07:18:12;10.60;;;9.05;;
18407;SDS011;9330;52.210;21.174;2023-09-19T07:20:41;12.80;;;8.68;;
18407;SDS011;9330;52.210;21.174;2023-09-19T07:23:13;11.75;;;9.10;;
18407;SDS011;9330;52.210;21.174;2023-09-19T07:25:43;12.18;;;8.60;;
18407;SDS011;9330;52.210;21.174;2023-09-19T07:28:09;10.68;;;8.65;;
18407;SDS011;9330;52.210;21.174;2023-09-19T07:30:36;11.02;;;8.65;;
18407;SDS011;9330;52.210;21.174;2023-09-19T07:33:04;11.02;;;8.32;;
18407;SDS011;9330;52.210;21.174;2023-09-19T07:35:31;10.25;;;9.18;;
18407;SDS011;9330;52.210;21.174;2023-09-19T07:37:58;9.60;;;8.60;;
18407;SDS011;9330;52.210;21.174;2023-09-19T07:40:26;10.23;;;9.02;;
18407;SDS011;9330;52.210;21.174;2023-09-19T07:42:55;11.52;;;9.75;;
18407;SDS011;9330;52.210;21.174;2023-09-19T07:45:26;12.43;;;9.00;;
18407;SDS011;9330;52.210;21.174;2023-09-19T07:47:55;12.95;;;9.23;;
18407;SDS011;9330;52.210;21.174;2023-09-19T07:50:22;11.35;;;9.13;;
18407;SDS011;9330;52.210;21.174;2023-09-19T07:52:49;12.77;;;9.88;;
18407;SDS011;9330;52.210;21.174;2023-09-19T07:55:17;10.85;;;9.45;;
18407;SDS011;9330;52.210;21.174;2023-09-19T07:57:45;10.40;;;9.30;;
18407;SDS011;9330;52.210;21.174;2023-09-19T08:00:14;9.93;;;8.93;;
18407;SDS011;9330;52.210;21.174;2023-09-19T08:02:42;10.48;;;9.48;;
18407;SDS011;9330;52.210;21.174;2023-09-19T08:05:10;10.65;;;8.88;;
18407;SDS011;9330;52.210;21.174;2023-09-19T08:07:41;11.25;;;9.80;;
18407;SDS011;9330;52.210;21.174;2023-09-19T08:10:10;13.77;;;10.02;;
18407;SDS011;9330;52.210;21.174;2023-09-19T08:12:38;13.07;;;9.77;;
18407;SDS011;9330;52.210;21.174;2023-09-19T08:15:11;10.38;;;9.38;;
18407;SDS011;9330;52.210;21.174;2023-09-19T08:17:39;10.68;;;9.55;;
18407;SDS011;9330;52.210;21.174;2023-09-19T08:20:07;10.57;;;9.30;;
18407;SDS011;9330;52.210;21.174;2023-09-19T08:22:41;14.38;;;10.70;;
18407;SDS011;9330;52.210;21.174;2023-09-19T08:25:11;11.05;;;10.02;;
18407;SDS011;9330;52.210;21.174;2023-09-19T08:27:38;11.27;;;10.05;;
18407;SDS011;9330;52.210;21.174;2023-09-19T08:30:05;12.80;;;9.95;;
18407;SDS011;9330;52.210;21.174;2023-09-19T08:32:34;12.07;;;10.50;;
18407;SDS011;9330;52.210;21.174;2023-09-19T08:35:00;15.00;;;11.15;;
18407;SDS011;9330;52.210;21.174;2023-09-19T08:37:29;12.13;;;10.93;;
18407;SDS011;9330;52.210;21.174;2023-09-19T08:39:56;11.27;;;10.18;;
18407;SDS011;9330;52.210;21.174;2023-09-19T08:42:23;14.00;;;11.55;;
18407;SDS011;9330;52.210;21.174;2023-09-19T08:44:50;13.45;;;11.82;;
18407;SDS011;9330;52.210;21.174;2023-09-19T08:47:23;14.50;;;11.60;;
18407;SDS011;9330;52.210;21.174;2023-09-19T08:50:03;13.35;;;11.93;;
18407;SDS011;9330;52.210;21.174;2023-09-19T08:52:41;12.52;;;11.23;;
18407;SDS011;9330;52.210;21.174;2023-09-19T08:55:11;12.38;;;11.23;;
18407;SDS011;9330;52.210;21.174;2023-09-19T08:57:45;14.80;;;12.20;;
18407;SDS011;9330;52.210;21.174;2023-09-19T09:00:14;13.07;;;11.73;;
18407;SDS011;9330;52.210;21.174;2023-09-19T09:02:43;12.75;;;11.45;;
18407;SDS011;9330;52.210;21.174;2023-09-19T09:05:13;13.65;;;12.23;;
18407;SDS011;9330;52.210;21.174;2023-09-19T09:07:41;12.20;;;11.00;;
18407;SDS011;9330;52.210;21.174;2023-09-19T09:10:09;13.00;;;11.65;;
18407;SDS011;9330;52.210;21.174;2023-09-19T09:12:36;13.52;;;11.07;;
18407;SDS011;9330;52.210;21.174;2023-09-19T09:15:05;12.73;;;11.52;;
18407;SDS011;9330;52.210;21.174;2023-09-19T09:17:33;13.10;;;11.73;;
18407;SDS011;9330;52.210;21.174;2023-09-19T09:20:00;13.13;;;11.82;;
18407;SDS011;9330;52.210;21.174;2023-09-19T09:22:31;12.73;;;11.00;;
18407;SDS011;9330;52.210;21.174;2023-09-19T09:24:58;12.65;;;10.63;;
18407;SDS011;9330;52.210;21.174;2023-09-19T09:27:28;11.57;;;10.48;;
18407;SDS011;9330;52.210;21.174;2023-09-19T09:29:56;13.48;;;10.95;;
18407;SDS011;9330;52.210;21.174;2023-09-19T09:32:23;11.43;;;10.13;;
18407;SDS011;9330;52.210;21.174;2023-09-19T09:34:54;11.52;;;10.32;;
18407;SDS011;9330;52.210;21.174;2023-09-19T09:37:22;11.20;;;10.00;;
18407;SDS011;9330;52.210;21.174;2023-09-19T09:39:51;12.45;;;9.57;;
18407;SDS011;9330;52.210;21.174;2023-09-19T09:42:30;9.73;;;8.73;;
18407;SDS011;9330;52.210;21.174;2023-09-19T09:47:54;9.00;;;7.10;;
18407;SDS011;9330;52.210;21.174;2023-09-19T09:50:24;10.35;;;8.10;;
18407;SDS011;9330;52.210;21.174;2023-09-19T09:52:55;8.27;;;7.13;;
18407;SDS011;9330;52.210;21.174;2023-09-19T09:55:34;8.02;;;6.93;;
18407;SDS011;9330;52.210;21.174;2023-09-19T09:58:25;7.22;;;6.53;;
18407;SDS011;9330;52.210;21.174;2023-09-19T10:00:54;7.03;;;5.03;;
18407;SDS011;9330;52.210;21.174;2023-09-19T10:03:32;6.13;;;5.15;;
18407;SDS011;9330;52.210;21.174;2023-09-19T10:06:04;5.97;;;4.65;;
18407;SDS011;9330;52.210;21.174;2023-09-19T10:08:59;5.13;;;4.63;;
18407;SDS011;9330;52.210;21.174;2023-09-19T10:11:43;5.20;;;4.70;;
18407;SDS011;9330;52.210;21.174;2023-09-19T10:14:11;8.82;;;5.35;;
18407;SDS011;9330;52.210;21.174;2023-09-19T10:16:43;5.25;;;4.70;;
18407;SDS011;9330;52.210;21.174;2023-09-19T10:19:15;5.93;;;5.32;;
18407;SDS011;9330;52.210;21.174;2023-09-19T10:21:50;7.65;;;5.80;;
18407;SDS011;9330;52.210;21.174;2023-09-19T10:24:20;9.52;;;7.20;;
18407;SDS011;9330;52.210;21.174;2023-09-19T10:26:51;8.00;;;6.68;;
18407;SDS011;9330;52.210;21.174;2023-09-19T10:29:19;10.85;;;6.78;;
18407;SDS011;9330;52.210;21.174;2023-09-19T10:31:48;11.48;;;7.38;;
18407;SDS011;9330;52.210;21.174;2023-09-19T10:34:18;10.48;;;6.43;;
18407;SDS011;9330;52.210;21.174;2023-09-19T10:36:48;7.95;;;6.15;;
18407;SDS011;9330;52.210;21.174;2023-09-19T10:39:17;8.70;;;6.20;;
18407;SDS011;9330;52.210;21.174;2023-09-19T10:41:47;8.38;;;5.97;;
18407;SDS011;9330;52.210;21.174;2023-09-19T10:44:21;6.97;;;5.57;;
18407;SDS011;9330;52.210;21.174;2023-09-19T10:46:50;8.02;;;5.95;;
18407;SDS011;9330;52.210;21.174;2023-09-19T10:49:18;7.55;;;6.55;;
18407;SDS011;9330;52.210;21.174;2023-09-19T10:51:45;6.65;;;5.95;;
18407;SDS011;9330;52.210;21.174;2023-09-19T10:54:16;9.15;;;6.45;;
18407;SDS011;9330;52.210;21.174;2023-09-19T10:56:48;8.95;;;6.55;;
18407;SDS011;9330;52.210;21.174;2023-09-19T10:59:18;11.65;;;6.03;;
18407;SDS011;9330;52.210;21.174;2023-09-19T11:01:46;7.38;;;6.18;;
18407;SDS011;9330;52.210;21.174;2023-09-19T11:04:29;6.95;;;5.82;;
18407;SDS011;9330;52.210;21.174;2023-09-19T11:07:00;8.00;;;6.13;;
18407;SDS011;9330;52.210;21.174;2023-09-19T11:09:48;7.35;;;6.55;;
18407;SDS011;9330;52.210;21.174;2023-09-19T11:24:29;7.40;;;6.70;;
18407;SDS011;9330;52.210;21.174;2023-09-19T11:27:14;9.98;;;7.40;;
18407;SDS011;9330;52.210;21.174;2023-09-19T11:29:42;8.68;;;7.20;;
18407;SDS011;9330;52.210;21.174;2023-09-19T11:32:10;10.48;;;8.05;;
18407;SDS011;9330;52.210;21.174;2023-09-19T11:34:41;8.55;;;7.75;;
18407;SDS011;9330;52.210;21.174;2023-09-19T11:40:44;8.60;;;7.70;;
18407;SDS011;9330;52.210;21.174;2023-09-19T11:43:29;10.18;;;7.60;;
18407;SDS011;9330;52.210;21.174;2023-09-19T11:46:08;9.18;;;8.25;;
18407;SDS011;9330;52.210;21.174;2023-09-19T11:48:36;8.65;;;7.53;;
18407;SDS011;9330;52.210;21.174;2023-09-19T11:51:11;9.30;;;7.80;;
18407;SDS011;9330;52.210;21.174;2023-09-19T11:53:47;9.38;;;7.68;;
18407;SDS011;9330;52.210;21.174;2023-09-19T11:56:15;9.55;;;8.15;;
18407;SDS011;9330;52.210;21.174;2023-09-19T11:58:43;9.85;;;8.10;;
18407;SDS011;9330;52.210;21.174;2023-09-19T12:01:12;10.32;;;8.30;;
18407;SDS011;9330;52.210;21.174;2023-09-19T12:03:46;9.27;;;8.02;;
18407;SDS011;9330;52.210;21.174;2023-09-19T12:06:16;8.00;;;7.20;;
18407;SDS011;9330;52.210;21.174;2023-09-19T12:08:43;8.43;;;7.63;;
18407;SDS011;9330;52.210;21.174;2023-09-19T12:11:15;9.88;;;8.63;;
18407;SDS011;9330;52.210;21.174;2023-09-19T12:13:45;12.10;;;9.48;;
18407;SDS011;9330;52.210;21.174;2023-09-19T12:16:14;10.00;;;9.00;;
18407;SDS011;9330;52.210;21.174;2023-09-19T12:18:41;9.93;;;8.20;;
18407;SDS011;9330;52.210;21.174;2023-09-19T12:21:25;12.45;;;8.60;;
18407;SDS011;9330;52.210;21.174;2023-09-19T12:23:59;8.50;;;7.60;;
18407;SDS011;9330;52.210;21.174;2023-09-19T12:26:30;7.47;;;6.78;;
18407;SDS011;9330;52.210;21.174;2023-09-19T12:29:05;10.25;;;6.93;;
18407;SDS011;9330;52.210;21.174;2023-09-19T12:31:46;8.35;;;6.30;;
18407;SDS011;9330;52.210;21.174;2023-09-19T12:34:15;6.70;;;6.10;;
18407;SDS011;9330;52.210;21.174;2023-09-19T12:36:46;6.70;;;6.03;;
18407;SDS011;9330;52.210;21.174;2023-09-19T12:39:22;7.20;;;5.80;;
18407;SDS011;9330;52.210;21.174;2023-09-19T12:41:50;7.28;;;5.68;;
18407;SDS011;9330;52.210;21.174;2023-09-19T12:44:19;6.70;;;6.00;;
18407;SDS011;9330;52.210;21.174;2023-09-19T12:46:46;7.25;;;6.13;;
18407;SDS011;9330;52.210;21.174;2023-09-19T12:49:16;9.43;;;6.65;;
18407;SDS011;9330;52.210;21.174;2023-09-19T12:51:46;6.82;;;5.60;;
18407;SDS011;9330;52.210;21.174;2023-09-19T12:54:13;8.43;;;6.07;;
18407;SDS011;9330;52.210;21.174;2023-09-19T12:56:41;7.57;;;6.47;;
18407;SDS011;9330;52.210;21.174;2023-09-19T12:59:11;6.82;;;5.55;;
18407;SDS011;9330;52.210;21.174;2023-09-19T13:01:39;7.93;;;5.93;;
18407;SDS011;9330;52.210;21.174;2023-09-19T13:04:11;6.93;;;6.22;;
18407;SDS011;9330;52.210;21.174;2023-09-19T13:06:43;6.50;;;5.90;;
18407;SDS011;9330;52.210;21.174;2023-09-19T13:09:12;7.75;;;6.85;;
18407;SDS011;9330;52.210;21.174;2023-09-19T13:11:40;7.70;;;7.00;;
18407;SDS011;9330;52.210;21.174;2023-09-19T13:14:13;7.88;;;6.57;;
18407;SDS011;9330;52.210;21.174;2023-09-19T13:16:52;7.22;;;6.53;;
18407;SDS011;9330;52.210;21.174;2023-09-19T13:19:36;6.95;;;6.22;;
18407;SDS011;9330;52.210;21.174;2023-09-19T13:22:04;7.97;;;6.50;;
18407;SDS011;9330;52.210;21.174;2023-09-19T13:24:35;6.90;;;5.95;;
18407;SDS011;9330;52.210;21.174;2023-09-19T13:27:05;8.30;;;6.38;;
18407;SDS011;9330;52.210;21.174;2023-09-19T13:29:32;7.07;;;6.38;;
18407;SDS011;9330;52.210;21.174;2023-09-19T13:31:59;8.73;;;7.82;;
18407;SDS011;9330;52.210;21.174;2023-09-19T13:34:27;8.55;;;7.25;;
18407;SDS011;9330;52.210;21.174;2023-09-19T13:36:54;7.95;;;7.18;;
18407;SDS011;9330;52.210;21.174;2023-09-19T13:39:24;7.65;;;6.82;;
18407;SDS011;9330;52.210;21.174;2023-09-19T13:41:52;8.40;;;7.53;;
18407;SDS011;9330;52.210;21.174;2023-09-19T13:44:19;7.70;;;6.88;;
18407;SDS011;9330;52.210;21.174;2023-09-19T13:46:45;8.35;;;6.88;;
18407;SDS011;9330;52.210;21.174;2023-09-19T13:49:12;7.90;;;6.72;;
18407;SDS011;9330;52.210;21.174;2023-09-19T13:51:39;10.45;;;7.40;;
18407;SDS011;9330;52.210;21.174;2023-09-19T13:54:08;7.95;;;7.10;;
18407;SDS011;9330;52.210;21.174;2023-09-19T13:56:36;7.03;;;6.32;;
18407;SDS011;9330;52.210;21.174;2023-09-19T13:59:05;8.73;;;7.47;;
18407;SDS011;9330;52.210;21.174;2023-09-19T14:01:32;8.73;;;7.18;;
18407;SDS011;9330;52.210;21.174;2023-09-19T14:03:58;8.02;;;7.22;;
18407;SDS011;9330;52.210;21.174;2023-09-19T14:06:26;7.30;;;6.60;;
18407;SDS011;9330;52.210;21.174;2023-09-19T14:08:53;9.40;;;7.38;;
18407;SDS011;9330;52.210;21.174;2023-09-19T14:11:20;8.07;;;7.15;;
18407;SDS011;9330;52.210;21.174;2023-09-19T14:13:47;8.48;;;6.40;;
18407;SDS011;9330;52.210;21.174;2023-09-19T14:16:15;8.07;;;7.10;;
18407;SDS011;9330;52.210;21.174;2023-09-19T14:18:42;8.90;;;7.22;;
18407;SDS011;9330;52.210;21.174;2023-09-19T14:21:11;9.15;;;7.20;;
18407;SDS011;9330;52.210;21.174;2023-09-19T14:23:38;8.25;;;6.57;;
18407;SDS011;9330;52.210;21.174;2023-09-19T14:26:04;8.70;;;7.90;;
18407;SDS011;9330;52.210;21.174;2023-09-19T14:28:31;7.80;;;6.82;;
18407;SDS011;9330;52.210;21.174;2023-09-19T14:31:03;11.02;;;8.18;;
18407;SDS011;9330;52.210;21.174;2023-09-19T14:33:32;9.60;;;8.50;;
18407;SDS011;9330;52.210;21.174;2023-09-19T14:36:02;11.48;;;8.13;;
18407;SDS011;9330;52.210;21.174;2023-09-19T14:38:30;9.15;;;7.60;;
18407;SDS011;9330;52.210;21.174;2023-09-19T14:40:59;10.52;;;8.05;;
18407;SDS011;9330;52.210;21.174;2023-09-19T14:43:26;8.68;;;7.07;;
18407;SDS011;9330;52.210;21.174;2023-09-19T14:45:54;10.82;;;8.43;;
18407;SDS011;9330;52.210;21.174;2023-09-19T14:48:22;10.85;;;8.45;;
18407;SDS011;9330;52.210;21.174;2023-09-19T14:50:51;11.13;;;8.10;;
18407;SDS011;9330;52.210;21.174;2023-09-19T14:53:20;9.75;;;7.28;;
18407;SDS011;9330;52.210;21.174;2023-09-19T14:55:47;9.93;;;7.55;;
18407;SDS011;9330;52.210;21.174;2023-09-19T14:58:17;7.45;;;6.65;;
18407;SDS011;9330;52.210;21.174;2023-09-19T15:00:44;9.07;;;7.60;;
18407;SDS011;9330;52.210;21.174;2023-09-19T15:03:11;6.97;;;6.30;;
18407;SDS011;9330;52.210;21.174;2023-09-19T15:05:38;10.63;;;8.30;;